Time;durP1;ratioP1;P1;durP2;ratioP2;P2;SDS_P1;SDS_P2;PMS_P1;PMS_P2;Temp;Humidity;BMP_temperature;BMP_pressure;BME280_temperature;BME280_humidity;BME280_pressure;Samples;Min_cycle;Max_cycle;Signal;HPM_P1;HPM_P2
2023/06/02 00:00:52;;;;;;;14.15;4.90;;;;;;;13.19;61.97;102034.94;5053144;28;20024;-58
2023/06/02 00:03:18;;;;;;;11.85;5.28;;;;;;;13.05;62.95;102033.00;5052632;28;20476;-58
2023/06/02 00:05:44;;;;;;;12.73;5.22;;;;;;;12.92;63.73;102035.47;5053727;28;20078;-58
2023/06/02 00:08:11;;;;;;;10.60;5.65;;;;;;;13.10;62.99;102036.28;5052448;28;20021;-58
2023/06/02 00:10:36;;;;;;;11.85;5.10;;;;;;;13.05;63.20;102029.47;5052029;28;20059;-58
2023/06/02 00:13:02;;;;;;;9.98;4.72;;;;;;;13.17;62.73;102036.81;5053907;28;20052;-58
2023/06/02 00:15:31;;;;;;;11.05;4.70;;;;;;;13.23;62.39;102040.97;5051539;28;20052;-58
2023/06/02 00:17:57;;;;;;;13.43;5.40;;;;;;;13.07;62.85;102033.78;5053490;28;20503;-58
2023/06/02 00:20:26;;;;;;;11.23;5.90;;;;;;;13.05;62.92;102033.00;5053606;28;20037;-58
2023/06/02 00:22:52;;;;;;;13.85;5.32;;;;;;;13.21;62.48;102041.06;5053488;28;20036;-58
2023/06/02 00:25:17;;;;;;;11.88;5.22;;;;;;;13.29;62.39;102024.63;5052042;28;20021;-58
2023/06/02 00:27:43;;;;;;;11.30;4.50;;;;;;;13.20;61.99;102031.28;5051982;28;20029;-58
2023/06/02 00:30:09;;;;;;;16.65;4.82;;;;;;;13.28;61.79;102034.44;5052778;28;20025;-58
2023/06/02 00:32:34;;;;;;;11.70;4.95;;;;;;;13.22;61.96;102029.41;5052108;28;20029;-58
2023/06/02 00:35:00;;;;;;;9.82;5.25;;;;;;;13.27;61.73;102029.19;5051931;28;20078;-58
2023/06/02 00:37:25;;;;;;;10.48;5.25;;;;;;;12.92;62.31;102029.28;5051549;28;20051;-58
2023/06/02 00:39:50;;;;;;;10.45;4.82;;;;;;;12.98;62.68;102034.28;5053229;28;20108;-58
2023/06/02 00:42:20;;;;;;;10.60;4.78;;;;;;;12.94;62.03;102027.38;5052871;28;20032;-58
2023/06/02 00:44:45;;;;;;;;;;;;;;;12.99;61.52;102033.34;5051723;28;20024;-58
2023/06/02 00:47:14;;;;;;;13.45;4.93;;;;;;;12.90;62.02;102031.16;5052914;28;19912;-58
2023/06/02 00:49:41;;;;;;;9.88;5.15;;;;;;;12.88;61.64;102027.72;5053335;28;20440;-58
2023/06/02 00:52:08;;;;;;;15.05;5.88;;;;;;;12.63;62.18;102025.50;5052953;28;20071;-58
2023/06/02 00:54:33;;;;;;;11.18;5.13;;;;;;;12.79;61.55;102021.06;5051609;28;20499;-57
2023/06/02 00:56:59;;;;;;;12.13;4.78;;;;;;;12.72;61.83;102025.88;5052594;28;20021;-58
2023/06/02 00:59:24;;;;;;;13.15;5.10;;;;;;;12.73;61.45;102035.63;5051458;28;20048;-58
2023/06/02 01:01:50;;;;;;;12.32;5.03;;;;;;;12.68;61.40;102031.47;5053000;28;20029;-58
2023/06/02 01:04:18;;;;;;;15.23;5.28;;;;;;;12.80;61.33;102041.47;5051331;28;20391;-58
2023/06/02 01:06:48;;;;;;;15.43;5.60;;;;;;;12.66;61.32;102034.19;5052760;28;20029;-58
2023/06/02 01:09:16;;;;;;;12.48;5.40;;;;;;;12.82;60.47;102030.72;5050935;28;20039;-58
2023/06/02 01:11:47;;;;;;;14.40;5.65;;;;;;;12.61;61.19;102022.91;5052836;28;20090;-58
2023/06/02 01:14:12;;;;;;;15.68;5.30;;;;;;;12.68;60.81;102032.31;5052138;28;20024;-58
2023/06/02 01:16:39;;;;;;;16.23;5.25;;;;;;;12.73;60.31;102040.06;5051183;28;20041;-58
2023/06/02 01:19:13;;;;;;;16.02;5.90;;;;;;;12.67;60.52;102030.56;5053104;28;20115;-58
2023/06/02 01:21:40;;;;;;;12.05;5.90;;;;;;;12.73;60.34;102032.94;5051561;28;20100;-58
2023/06/02 01:24:06;;;;;;;15.25;5.35;;;;;;;12.62;60.01;102042.47;5050976;28;20078;-58
2023/06/02 01:26:36;;;;;;;17.15;5.60;;;;;;;12.69;59.70;102043.84;5052465;28;20461;-58
2023/06/02 01:29:03;;;;;;;13.60;5.32;;;;;;;12.71;59.66;102044.66;5049487;28;20032;-58
2023/06/02 01:31:46;;;;;;;16.92;6.47;;;;;;;12.78;59.18;102042.50;5051890;28;20434;-58
2023/06/02 01:34:24;;;;;;;17.50;5.53;;;;;;;12.70;59.38;102042.91;5051913;28;20051;-58
2023/06/02 01:36:55;;;;;;;17.80;5.82;;;;;;;12.67;58.92;102049.25;5063991;28;20028;-58
2023/06/02 01:39:26;;;;;;;16.35;6.10;;;;;;;12.55;58.99;102038.38;5054492;28;20021;-58
2023/06/02 01:41:52;;;;;;;22.05;6.55;;;;;;;12.42;59.93;102044.34;5050214;28;20027;-58
2023/06/02 01:44:21;;;;;;;16.83;6.43;;;;;;;12.43;59.40;102038.06;5051524;28;20021;-58
2023/06/02 01:46:48;;;;;;;21.52;6.95;;;;;;;12.32;59.96;102031.56;5050463;28;20027;-58
2023/06/02 01:49:17;;;;;;;14.70;6.45;;;;;;;12.47;59.82;102022.75;5051525;28;20060;-58
2023/06/02 01:51:43;;;;;;;17.58;6.72;;;;;;;12.31;60.41;102033.38;5051528;28;20037;-58
2023/06/02 01:54:09;;;;;;;15.13;6.40;;;;;;;12.38;60.47;102032.13;5051900;28;20028;-58
2023/06/02 01:56:34;;;;;;;13.98;5.90;;;;;;;12.57;59.92;102039.16;5050780;28;20037;-58
2023/06/02 01:59:00;;;;;;;20.05;5.63;;;;;;;12.48;59.90;102024.50;5051333;28;20365;-58
2023/06/02 02:01:28;;;;;;;19.30;6.20;;;;;;;12.48;59.64;102021.81;5051813;28;20067;-58
2023/06/02 02:03:54;;;;;;;14.82;5.40;;;;;;;12.51;59.82;102040.34;5050772;28;20140;-58
2023/06/02 02:06:34;;;;;;;13.98;5.35;;;;;;;12.49;59.54;102035.06;5049826;28;20077;-58
2023/06/02 02:09:00;;;;;;;16.50;6.63;;;;;;;12.44;59.89;102031.81;5063726;28;20024;-58
2023/06/02 02:11:29;;;;;;;15.18;5.70;;;;;;;12.58;59.74;102038.22;5061316;28;20032;-58
2023/06/02 02:13:54;;;;;;;18.48;6.40;;;;;;;12.43;59.61;102030.06;5050497;28;20037;-58
2023/06/02 02:16:20;;;;;;;19.63;6.15;;;;;;;12.66;59.48;102034.19;5064364;28;20474;-58
2023/06/02 02:18:46;;;;;;;15.10;5.80;;;;;;;12.57;59.30;102034.69;5068629;28;20492;-58
2023/06/02 02:21:14;;;;;;;16.42;5.63;;;;;;;12.67;59.65;102035.06;5068572;28;20027;-58
2023/06/02 02:23:40;;;;;;;18.90;5.88;;;;;;;12.57;60.03;102033.81;5058370;28;20024;-58
2023/06/02 02:26:06;;;;;;;12.45;5.80;;;;;;;12.60;59.70;102037.19;5060990;28;20025;-58
2023/06/02 02:28:32;;;;;;;15.25;5.65;;;;;;;12.63;59.96;102030.84;5069424;28;20039;-58
2023/06/02 02:30:58;;;;;;;19.60;5.88;;;;;;;12.77;59.46;102033.63;5050348;28;20029;-58
2023/06/02 02:33:23;;;;;;;12.07;5.50;;;;;;;12.83;59.70;102032.44;5063870;28;20059;-58
2023/06/02 02:35:51;;;;;;;15.00;5.53;;;;;;;12.78;59.80;102023.81;5052226;28;20037;-58
2023/06/02 02:38:16;;;;;;;16.42;5.80;;;;;;;12.63;60.53;102020.16;5067087;28;20024;-58
2023/06/02 02:40:42;;;;;;;15.50;5.38;;;;;;;12.71;60.65;102023.28;5059277;28;20392;-58
2023/06/02 02:43:07;;;;;;;12.20;5.20;;;;;;;12.73;60.06;102022.28;5064958;28;20389;-58
2023/06/02 02:45:32;;;;;;;17.08;5.90;;;;;;;12.71;59.88;102024.16;5059101;28;20029;-58
2023/06/02 02:47:58;;;;;;;19.23;6.07;;;;;;;12.76;60.36;102013.22;5059612;28;20428;-58
2023/06/02 02:50:23;;;;;;;13.75;6.15;;;;;;;12.62;60.65;102013.97;5066335;28;20082;-58
2023/06/02 02:52:48;;;;;;;11.80;5.53;;;;;;;12.67;60.78;102016.38;5058316;28;20020;-58
2023/06/02 02:55:14;;;;;;;17.08;5.80;;;;;;;12.58;61.24;102011.53;5066423;28;20056;-58
2023/06/02 02:57:40;;;;;;;15.57;6.20;;;;;;;12.57;61.09;102015.16;5052811;28;21212;-58
2023/06/02 03:00:09;;;;;;;17.63;6.57;;;;;;;12.70;60.87;102016.22;5070781;28;20025;-58
2023/06/02 03:02:37;;;;;;;14.93;6.60;;;;;;;12.48;61.45;102014.69;5051824;28;20060;-58
2023/06/02 03:05:03;;;;;;;15.50;6.05;;;;;;;12.35;62.33;102020.72;5071182;28;20017;-58
2023/06/02 03:07:34;;;;;;;17.27;6.07;;;;;;;12.47;62.09;102018.31;5066079;28;20024;-58
2023/06/02 03:10:00;;;;;;;21.23;6.85;;;;;;;12.29;62.51;102016.56;5061816;28;20100;-58
2023/06/02 03:12:25;;;;;;;15.55;6.22;;;;;;;12.34;62.93;102027.00;5053686;28;20540;-58
2023/06/02 03:14:50;;;;;;;14.02;6.30;;;;;;;12.46;62.13;102019.22;5067971;28;20032;-57
2023/06/02 03:17:17;;;;;;;18.88;6.13;;;;;;;12.47;62.25;102028.97;5060627;28;20029;-58
2023/06/02 03:19:43;;;;;;;13.55;5.55;;;;;;;12.45;62.32;102025.50;5040509;28;20495;-58
2023/06/02 03:22:08;;;;;;;16.42;6.18;;;;;;;12.42;62.59;102025.69;5049950;28;20405;-58
2023/06/02 03:24:34;;;;;;;16.52;6.35;;;;;;;12.37;63.10;102025.03;5062223;28;20043;-58
2023/06/02 03:26:59;;;;;;;21.38;6.65;;;;;;;12.48;63.25;102027.16;5036333;28;20020;-58
2023/06/02 03:29:25;;;;;;;15.05;5.68;;;;;;;12.50;63.22;102027.97;5052773;28;20480;-58
2023/06/02 03:31:52;;;;;;;16.92;6.65;;;;;;;12.38;63.78;102033.91;5059928;28;20400;-58
2023/06/02 03:34:18;;;;;;;15.50;5.95;;;;;;;12.30;63.92;102028.13;5073110;28;20020;-58
2023/06/02 03:36:43;;;;;;;18.77;6.47;;;;;;;12.23;63.96;102035.56;5052856;28;20017;-58
2023/06/02 03:39:12;;;;;;;15.07;5.97;;;;;;;12.16;63.65;102036.81;5056639;28;20025;-58
2023/06/02 03:41:38;;;;;;;17.85;5.97;;;;;;;12.11;63.05;102030.84;5054463;28;20040;-58
2023/06/02 03:44:06;;;;;;;19.17;5.47;;;;;;;12.16;62.53;102037.69;5064575;28;20468;-58
2023/06/02 03:46:32;;;;;;;17.35;6.47;;;;;;;12.11;62.53;102031.69;5056787;28;20833;-58
2023/06/02 03:48:58;;;;;;;20.42;6.45;;;;;;;12.20;62.35;102041.03;5052973;28;20013;-58
2023/06/02 03:51:23;;;;;;;18.50;6.38;;;;;;;11.94;62.83;102037.03;5046917;28;20070;-58
2023/06/02 03:53:49;;;;;;;15.40;5.75;;;;;;;11.94;62.42;102042.34;5053709;28;20036;-58
2023/06/02 03:56:15;;;;;;;20.63;5.78;;;;;;;12.13;62.22;102039.66;5052411;28;20029;-58
2023/06/02 03:58:41;;;;;;;13.35;6.53;;;;;;;12.08;62.26;102041.66;5053803;28;20468;-58
2023/06/02 04:01:06;;;;;;;13.38;6.00;;;;;;;12.19;61.84;102044.66;5053415;28;20056;-58
2023/06/02 04:03:37;;;;;;;15.38;5.20;;;;;;;12.20;60.83;102044.56;5053458;28;20093;-58
2023/06/02 04:06:06;;;;;;;13.63;5.63;;;;;;;11.97;61.53;102055.53;5052324;28;20021;-58
2023/06/02 04:08:33;;;;;;;14.98;5.75;;;;;;;12.02;61.45;102034.84;5053774;28;20225;-58
2023/06/02 04:10:58;;;;;;;15.25;5.55;;;;;;;12.03;62.00;102047.25;5052184;28;20037;-58
2023/06/02 04:13:24;;;;;;;18.42;6.57;;;;;;;12.06;61.99;102055.09;5053222;28;20472;-58
2023/06/02 04:15:49;;;;;;;17.05;6.03;;;;;;;11.96;62.30;102057.34;5051641;28;20393;-58
2023/06/02 04:18:15;;;;;;;14.20;5.57;;;;;;;11.95;62.54;102050.28;5052499;28;20040;-58
2023/06/02 04:20:40;;;;;;;14.75;5.65;;;;;;;11.82;62.67;102049.13;5053769;28;20086;-58
2023/06/02 04:23:05;;;;;;;13.90;5.93;;;;;;;11.85;62.63;102053.44;5052194;28;20039;-58
2023/06/02 04:25:31;;;;;;;13.88;5.85;;;;;;;11.80;62.22;102051.00;5051437;28;20117;-58
2023/06/02 04:27:56;;;;;;;14.80;5.70;;;;;;;11.76;62.52;102044.09;5053357;28;20028;-58
2023/06/02 04:30:21;;;;;;;18.65;6.82;;;;;;;11.83;62.17;102050.88;5052708;28;20422;-58
2023/06/02 04:32:47;;;;;;;18.30;5.97;;;;;;;11.69;62.24;102042.69;5053423;28;20048;-58
2023/06/02 04:35:13;;;;;;;14.52;6.20;;;;;;;11.62;62.20;102047.44;5054344;28;20086;-58
2023/06/02 04:37:38;;;;;;;12.65;5.82;;;;;;;11.71;61.68;102052.31;5053247;28;20064;-58
2023/06/02 04:40:04;;;;;;;14.40;5.40;;;;;;;11.66;61.64;102046.34;5052995;28;20048;-58
2023/06/02 04:42:32;;;;;;;15.15;6.03;;;;;;;11.67;61.78;102045.41;5051711;28;20025;-58
2023/06/02 04:45:00;;;;;;;11.30;5.82;;;;;;;11.67;62.10;102056.06;5051452;28;20025;-58
2023/06/02 04:47:26;;;;;;;17.25;6.45;;;;;;;11.59;62.08;102050.25;5052955;28;20028;-58
2023/06/02 04:49:51;;;;;;;13.77;5.97;;;;;;;11.72;61.85;102053.19;5053096;28;20349;-58
2023/06/02 04:52:17;;;;;;;13.15;5.75;;;;;;;11.48;62.27;102044.56;5051833;28;20025;-58
2023/06/02 04:54:43;;;;;;;13.43;6.20;;;;;;;11.71;62.07;102054.13;5052817;28;20059;-58
2023/06/02 04:57:08;;;;;;;14.98;5.40;;;;;;;11.72;62.15;102063.84;5052580;28;20104;-58
2023/06/02 04:59:34;;;;;;;14.02;5.88;;;;;;;11.73;62.38;102057.56;5050650;28;20139;-58
2023/06/02 05:02:00;;;;;;;15.95;6.10;;;;;;;11.90;61.37;102062.13;5052837;28;20029;-58
2023/06/02 05:04:26;;;;;;;14.50;6.07;;;;;;;11.73;61.46;102063.75;5052646;28;20025;-58
2023/06/02 05:06:52;;;;;;;12.75;5.47;;;;;;;11.88;60.83;102072.84;5052659;28;20051;-58
2023/06/02 05:09:18;;;;;;;12.75;6.03;;;;;;;11.78;61.71;102072.41;5052524;28;20035;-58
2023/06/02 05:11:43;;;;;;;13.50;5.78;;;;;;;11.85;60.95;102066.75;5049711;28;20104;-58
2023/06/02 05:14:08;;;;;;;14.13;5.57;;;;;;;11.91;60.26;102082.50;5051968;28;20040;-58
2023/06/02 05:16:35;;;;;;;14.18;5.90;;;;;;;11.76;61.24;102071.59;5052250;28;20053;-58
2023/06/02 05:19:01;;;;;;;14.75;6.18;;;;;;;11.68;62.03;102068.47;5052384;28;20021;-58
2023/06/02 05:21:28;;;;;;;14.23;6.22;;;;;;;11.70;61.14;102069.22;5051995;28;20086;-58
2023/06/02 05:23:54;;;;;;;15.90;5.55;;;;;;;11.72;60.95;102078.03;5052412;28;20017;-58
2023/06/02 05:26:19;;;;;;;17.17;5.43;;;;;;;11.65;61.29;102073.94;5052646;28;20018;-58
2023/06/02 05:28:45;;;;;;;17.83;5.88;;;;;;;11.60;62.06;102073.28;5063416;28;20021;-58
2023/06/02 05:31:10;;;;;;;13.43;5.75;;;;;;;11.66;61.20;102072.13;5035367;28;20043;-58
2023/06/02 05:33:36;;;;;;;16.75;5.65;;;;;;;11.69;61.15;102070.19;5051150;28;20025;-58
2023/06/02 05:36:02;;;;;;;13.55;5.60;;;;;;;11.70;60.51;102073.69;5050705;28;20494;-59
2023/06/02 05:38:27;;;;;;;12.20;5.10;;;;;;;11.68;61.34;102068.47;5050628;28;20143;-58
2023/06/02 05:40:53;;;;;;;16.38;5.22;;;;;;;11.82;60.68;102076.66;5051979;28;20048;-58
2023/06/02 05:43:18;;;;;;;14.60;5.55;;;;;;;11.90;60.80;102070.97;5051573;28;20379;-58
2023/06/02 05:45:43;;;;;;;14.82;5.32;;;;;;;11.88;60.86;102079.97;5050962;28;20021;-58
2023/06/02 05:48:11;;;;;;;16.80;5.63;;;;;;;11.83;60.75;102078.38;5051992;28;20067;-58
2023/06/02 05:50:37;;;;;;;18.90;5.75;;;;;;;11.76;60.43;102084.94;5052202;28;20078;-58
2023/06/02 05:53:02;;;;;;;16.20;6.22;;;;;;;11.72;61.24;102075.38;5051773;28;20032;-58
2023/06/02 05:55:31;;;;;;;14.30;5.40;;;;;;;11.76;60.65;102079.59;5051064;28;20031;-58
2023/06/02 05:57:57;;;;;;;17.85;5.88;;;;;;;11.92;60.62;102081.56;5051612;28;20472;-58
2023/06/02 06:00:22;;;;;;;14.13;5.00;;;;;;;11.96;60.80;102085.81;5049960;28;20020;-58
2023/06/02 06:02:49;;;;;;;12.38;5.38;;;;;;;11.84;60.77;102084.56;5050650;28;20029;-58
2023/06/02 06:05:14;;;;;;;14.65;5.47;;;;;;;11.97;60.97;102084.84;5051018;28;20052;-58
2023/06/02 06:07:40;;;;;;;15.23;5.65;;;;;;;12.04;60.70;102086.31;5051824;28;20370;-58
2023/06/02 06:10:07;;;;;;;14.65;5.72;;;;;;;12.09;60.01;102078.06;5051496;28;20388;-58
2023/06/02 06:12:32;;;;;;;14.57;4.68;;;;;;;11.96;60.50;102069.81;5051753;28;20101;-57
2023/06/02 06:14:57;;;;;;;15.90;5.25;;;;;;;12.09;60.36;102078.06;5049462;28;20430;-58
2023/06/02 06:17:23;;;;;;;16.77;6.00;;;;;;;12.20;59.25;102081.06;5051474;28;20071;-58
2023/06/02 06:19:48;;;;;;;22.10;6.13;;;;;;;12.10;59.29;102083.31;5050079;28;20020;-58
2023/06/02 06:22:14;;;;;;;15.90;5.72;;;;;;;11.98;59.70;102081.28;5050280;28;20032;-58
2023/06/02 06:24:39;;;;;;;14.25;5.65;;;;;;;11.92;59.21;102074.44;5046388;28;20029;-57
2023/06/02 06:27:05;;;;;;;15.45;5.20;;;;;;;11.96;59.05;102084.00;5049404;28;20048;-58
2023/06/02 06:29:30;;;;;;;13.73;4.88;;;;;;;12.10;58.72;102091.31;5063307;28;20036;-57
2023/06/02 06:31:55;;;;;;;17.73;5.40;;;;;;;11.91;59.32;102077.16;5053443;28;20029;-57
2023/06/02 06:34:21;;;;;;;16.88;5.40;;;;;;;12.12;59.59;102088.56;5050020;28;20103;-57
2023/06/02 06:36:47;;;;;;;18.23;5.30;;;;;;;12.09;58.45;102094.94;5071398;28;20164;-57
2023/06/02 06:39:15;;;;;;;17.83;5.70;;;;;;;12.11;58.89;102094.84;5056794;28;20055;-58
2023/06/02 06:41:42;;;;;;;13.10;5.18;;;;;;;12.01;58.39;102089.13;5051707;28;20040;-58
2023/06/02 06:44:08;;;;;;;10.65;4.93;;;;;;;12.13;59.17;102098.31;5050793;28;20407;-58
2023/06/02 06:46:33;;;;;;;17.15;4.72;;;;;;;12.20;58.57;102089.91;5051755;28;20020;-57
2023/06/02 06:48:59;;;;;;;13.98;4.97;;;;;;;12.23;58.86;102102.25;5050379;28;20552;-58
2023/06/02 06:51:25;;;;;;;16.75;5.40;;;;;;;12.27;58.50;102088.69;5070127;28;20043;-57
2023/06/02 06:53:50;;;;;;;14.93;5.65;;;;;;;12.21;58.56;102086.31;5064115;28;20538;-58
2023/06/02 06:56:16;;;;;;;13.75;5.15;;;;;;;12.32;58.57;102091.09;5050131;28;20100;-58
2023/06/02 06:58:41;;;;;;;17.65;6.05;;;;;;;12.33;58.05;102092.00;5052659;28;20080;-57
2023/06/02 07:01:07;;;;;;;21.02;6.43;;;;;;;12.21;58.70;102091.66;5067984;28;20513;-58
2023/06/02 07:03:32;;;;;;;20.02;5.85;;;;;;;12.10;58.85;102091.31;5073540;28;20032;-58
2023/06/02 07:05:59;;;;;;;12.85;5.25;;;;;;;12.27;58.42;102085.16;5069642;28;20024;-57
2023/06/02 07:08:24;;;;;;;16.48;5.57;;;;;;;12.37;58.35;102089.06;5052343;28;20036;-58
2023/06/02 07:10:49;;;;;;;13.35;5.47;;;;;;;12.39;58.99;102092.53;5054805;28;20419;-57
2023/06/02 07:13:15;;;;;;;14.77;5.50;;;;;;;12.45;59.05;102089.56;5053549;28;20017;-58
2023/06/02 07:15:41;;;;;;;17.23;5.40;;;;;;;12.59;58.06;102098.66;5049426;28;20140;-57
2023/06/02 07:18:06;;;;;;;19.02;5.80;;;;;;;12.66;57.60;102087.59;5052892;28;20116;-58
2023/06/02 07:20:31;;;;;;;20.75;5.95;;;;;;;12.76;57.16;102098.63;5052205;28;20071;-57
2023/06/02 07:22:57;;;;;;;13.02;4.88;;;;;;;12.73;57.94;102098.78;5054293;28;20044;-58
2023/06/02 07:25:23;;;;;;;16.98;6.25;;;;;;;12.78;58.24;102093.22;5054608;28;20060;-57
2023/06/02 07:27:53;;;;;;;15.60;6.13;;;;;;;12.84;57.02;102106.25;5053307;28;20443;-58
2023/06/02 07:30:21;;;;;;;15.25;5.40;;;;;;;12.72;56.68;102107.75;5052362;28;20035;-58
2023/06/02 07:32:46;;;;;;;17.98;5.80;;;;;;;12.65;57.14;102099.22;5052914;28;20036;-58
2023/06/02 07:35:12;;;;;;;19.23;5.82;;;;;;;12.84;57.32;102115.13;5051032;28;20025;-58
2023/06/02 07:37:37;;;;;;;15.60;5.47;;;;;;;12.71;57.42;102109.56;5054210;28;20036;-57
2023/06/02 07:40:03;;;;;;;20.02;5.38;;;;;;;12.58;57.90;102105.78;5053164;28;20075;-57
2023/06/02 07:42:29;;;;;;;18.90;6.55;;;;;;;12.59;57.93;102106.66;5052777;28;20029;-57
2023/06/02 07:44:55;;;;;;;16.00;5.25;;;;;;;12.68;57.41;102101.72;5050551;28;20377;-57
2023/06/02 07:47:21;;;;;;;17.27;5.30;;;;;;;12.65;58.58;102107.22;5050727;28;20035;-57
2023/06/02 07:49:47;;;;;;;20.83;5.53;;;;;;;12.75;57.62;102098.72;5057658;28;20024;-57
2023/06/02 07:52:12;;;;;;;13.32;5.28;;;;;;;12.83;56.84;102102.72;5051864;28;20399;-58
2023/06/02 07:54:37;;;;;;;22.02;5.72;;;;;;;12.95;57.35;102103.88;5053403;28;20025;-57
2023/06/02 07:57:03;;;;;;;17.60;4.70;;;;;;;12.94;56.65;102092.34;5050034;28;20032;-57
2023/06/02 07:59:28;;;;;;;15.10;5.82;;;;;;;12.88;56.94;102090.00;5050597;28;20032;-58
2023/06/02 08:01:54;;;;;;;19.77;5.55;;;;;;;13.05;56.45;102097.09;5050729;28;20033;-57
2023/06/02 08:04:25;;;;;;;12.95;5.50;;;;;;;13.15;56.49;102094.81;5044700;28;20033;-57
2023/06/02 08:06:55;;;;;;;15.40;5.57;;;;;;;13.18;56.51;102094.66;5047392;28;20017;-58
2023/06/02 08:09:21;;;;;;;19.10;6.25;;;;;;;13.32;55.95;102083.22;5045966;28;20054;-58
2023/06/02 08:11:48;;;;;;;21.70;5.80;;;;;;;13.34;59.31;102092.88;5051266;28;20091;-58
2023/06/02 08:14:14;;;;;;;20.77;5.88;;;;;;;13.36;59.03;102090.16;5046151;28;20020;-57
2023/06/02 08:16:42;;;;;;;19.58;5.55;;;;;;;13.55;57.74;102090.84;5049364;28;20038;-58
2023/06/02 08:19:08;;;;;;;14.35;5.15;;;;;;;13.52;58.59;102095.50;5039204;28;20045;-58
2023/06/02 08:21:33;;;;;;;16.13;5.50;;;;;;;13.44;58.86;102087.03;5045636;28;20053;-58
2023/06/02 08:24:00;;;;;;;21.88;6.05;;;;;;;13.48;59.04;102093.97;5043796;28;20025;-58
2023/06/02 08:26:26;;;;;;;20.00;5.95;;;;;;;13.52;58.50;102093.69;5046032;28;20148;-57
2023/06/02 08:28:53;;;;;;;15.75;6.10;;;;;;;13.49;58.52;102087.66;5050583;28;20029;-57
2023/06/02 08:31:21;;;;;;;15.32;5.28;;;;;;;13.62;58.97;102096.72;5048047;28;20017;-58
2023/06/02 08:33:47;;;;;;;13.88;4.93;;;;;;;13.76;56.66;102095.94;5052956;28;20025;-58
2023/06/02 08:36:17;;;;;;;19.45;5.90;;;;;;;13.82;56.94;102093.78;5052578;28;20056;-58
2023/06/02 08:38:44;;;;;;;18.52;5.03;;;;;;;13.82;57.63;102092.91;5047795;28;20032;-61
2023/06/02 08:41:12;;;;;;;15.63;5.13;;;;;;;13.86;55.70;102100.69;5048806;28;20040;-58
2023/06/02 08:43:38;;;;;;;13.98;5.43;;;;;;;13.68;55.36;102084.81;5052909;28;20525;-58
2023/06/02 08:46:06;;;;;;;15.10;5.50;;;;;;;13.74;55.73;102085.34;5051300;28;20112;-58
2023/06/02 08:48:34;;;;;;;18.58;5.50;;;;;;;13.64;55.95;102101.00;5052288;28;20033;-58
2023/06/02 08:51:03;;;;;;;17.45;5.35;;;;;;;13.55;54.94;102098.00;5052829;28;20048;-58
2023/06/02 08:53:30;;;;;;;15.30;5.60;;;;;;;13.71;56.07;102098.03;5051634;28;20020;-58
2023/06/02 08:55:55;;;;;;;16.15;5.30;;;;;;;13.74;54.48;102088.00;5051177;28;20021;-58
2023/06/02 08:58:21;;;;;;;16.30;5.75;;;;;;;13.96;54.44;102090.31;5046229;28;20598;-58
2023/06/02 09:00:49;;;;;;;16.58;5.72;;;;;;;13.98;53.14;102088.41;5046783;28;20053;-58
2023/06/02 09:03:15;;;;;;;18.58;5.68;;;;;;;14.06;54.04;102078.16;5047166;28;20162;-58
2023/06/02 09:05:41;;;;;;;20.23;6.03;;;;;;;14.15;53.75;102087.47;5042500;28;20579;-58
2023/06/02 09:08:08;;;;;;;14.20;5.50;;;;;;;14.36;52.78;102089.81;5050456;28;20056;-58
2023/06/02 09:10:39;;;;;;;12.90;5.15;;;;;;;14.42;52.70;102089.47;5044201;28;20037;-58
2023/06/02 09:13:08;;;;;;;14.40;5.15;;;;;;;14.62;53.36;102082.91;5043075;28;20035;-58
2023/06/02 09:15:37;;;;;;;16.17;6.30;;;;;;;14.95;53.01;102080.88;5045057;28;20072;-58
2023/06/02 09:18:14;;;;;;;16.55;5.18;;;;;;;14.94;51.45;102073.81;5047283;28;20358;-58
2023/06/02 09:20:40;;;;;;;1057.00;108.20;;;;;;;15.21;50.98;102087.28;5051794;28;20655;-58
2023/06/02 09:23:06;;;;;;;16.10;5.05;;;;;;;15.07;51.92;102084.63;5042713;28;20035;-59
2023/06/02 09:25:33;;;;;;;15.88;6.10;;;;;;;15.13;51.49;102084.22;5043866;28;20055;-59
2023/06/02 09:28:00;;;;;;;13.38;5.03;;;;;;;15.45;51.37;102084.88;5050828;28;20164;-59
2023/06/02 09:30:27;;;;;;;11.25;5.35;;;;;;;15.41;50.33;102085.16;5049370;28;20029;-60
2023/06/02 09:32:59;;;;;;;10.63;4.72;;;;;;;15.81;50.02;102079.94;5049440;28;20063;-60
2023/06/02 09:35:36;;;;;;;19.17;5.78;;;;;;;15.90;50.37;102071.28;5049743;28;20094;-59
2023/06/02 09:38:07;;;;;;;17.27;5.43;;;;;;;16.18;49.26;102074.81;5049441;28;20036;-59
2023/06/02 09:40:34;;;;;;;26.23;5.88;;;;;;;16.41;48.46;102067.91;5051624;28;20142;-59
2023/06/02 09:43:07;;;;;;;15.75;5.65;;;;;;;16.64;47.77;102080.59;5047857;28;20476;-59
2023/06/02 09:45:33;;;;;;;16.95;5.60;;;;;;;16.65;46.77;102070.72;5046922;28;20198;-59
2023/06/02 09:48:01;;;;;;;15.07;5.05;;;;;;;16.70;46.95;102080.19;5050471;28;20021;-59
2023/06/02 09:50:32;;;;;;;15.43;4.88;;;;;;;16.53;47.55;102072.41;5050404;28;20116;-59
2023/06/02 09:53:03;;;;;;;15.13;5.75;;;;;;;16.69;47.25;102069.56;5060825;28;20157;-59
2023/06/02 09:55:31;;;;;;;15.90;5.05;;;;;;;16.85;47.31;102072.91;5068489;28;20149;-59
2023/06/02 09:57:57;;;;;;;14.60;4.75;;;;;;;17.20;48.23;102061.50;5071892;28;20028;-59
2023/06/02 10:00:23;;;;;;;14.77;5.30;;;;;;;17.46;46.55;102068.53;5070183;28;20498;-60
2023/06/02 10:02:48;;;;;;;12.98;5.43;;;;;;;17.47;46.08;102055.94;5050307;28;20025;-59
2023/06/02 10:05:16;;;;;;;16.83;5.40;;;;;;;17.49;46.64;102062.94;5050716;28;20441;-59
2023/06/02 10:07:53;;;;;;;18.40;5.80;;;;;;;17.98;46.49;102069.25;5049373;28;20033;-59
2023/06/02 10:10:29;;;;;;;13.82;5.35;;;;;;;18.21;44.88;102058.59;5060639;28;20364;-59
2023/06/02 10:13:04;;;;;;;14.63;5.13;;;;;;;18.32;45.75;102062.19;5062991;28;20021;-59
2023/06/02 10:15:45;;;;;;;11.10;4.90;;;;;;;18.68;43.89;102056.75;5050814;28;20094;-60
2023/06/02 10:18:10;;;;;;;13.52;5.45;;;;;;;18.79;43.37;102057.66;5052051;28;20067;-60
2023/06/02 10:20:53;;;;;;;14.40;5.40;;;;;;;18.55;44.04;102044.22;5051574;28;20434;-59
2023/06/02 10:23:37;;;;;;;12.68;4.85;;;;;;;18.77;43.88;102053.38;5069589;28;20082;-59
2023/06/02 10:26:46;;;;;;;16.77;5.40;;;;;;;18.61;44.48;102054.53;5061006;28;20025;-59
2023/06/02 10:29:13;;;;;;;15.02;4.75;;;;;;;18.34;44.34;102062.91;5051104;28;20068;-59
2023/06/02 10:31:39;;;;;;;16.90;5.90;;;;;;;18.19;44.27;102064.09;5051000;28;20021;-59
2023/06/02 10:34:05;;;;;;;14.30;4.88;;;;;;;17.89;45.06;102065.41;5054847;28;20048;-58
2023/06/02 10:36:56;;;;;;;19.83;5.47;;;;;;;17.85;45.87;102063.06;5055586;28;20075;-59
2023/06/02 10:39:42;;;;;;;12.43;4.63;;;;;;;17.88;46.14;102055.63;5059883;28;20035;-58
2023/06/02 10:42:12;;;;;;;16.70;5.38;;;;;;;17.92;45.20;102061.66;5070337;28;20025;-59
2023/06/02 10:44:37;;;;;;;14.65;4.80;;;;;;;17.84;45.13;102054.13;5063048;28;20086;-59
2023/06/02 10:47:18;;;;;;;14.77;6.00;;;;;;;18.01;46.56;102058.25;5055401;28;20017;-59
2023/06/02 10:49:51;;;;;;;12.73;5.30;;;;;;;18.20;44.89;102056.84;5058198;28;20086;-59
2023/06/02 10:52:16;;;;;;;14.93;4.97;;;;;;;18.08;44.31;102053.25;5056719;28;20361;-59
2023/06/02 10:54:42;;;;;;;11.55;5.03;;;;;;;18.12;45.81;102054.78;5055120;28;20078;-59
2023/06/02 10:57:09;;;;;;;12.32;4.80;;;;;;;18.31;45.08;102059.59;5054790;28;20033;-60
2023/06/02 10:59:36;;;;;;;11.30;5.15;;;;;;;18.60;45.36;102057.34;5053272;28;20047;-59
2023/06/02 11:02:03;;;;;;;10.80;5.05;;;;;;;18.89;44.38;102054.25;5051868;28;20021;-59
2023/06/02 11:04:32;;;;;;;13.88;5.43;;;;;;;19.20;44.10;102055.34;5052223;28;20029;-59
2023/06/02 11:07:25;;;;;;;12.18;5.05;;;;;;;19.07;43.78;102060.88;5053500;28;20392;-59
2023/06/02 11:09:54;;;;;;;15.68;5.20;;;;;;;18.70;44.18;102055.66;5058018;28;20410;-59
2023/06/02 11:12:51;;;;;;;17.17;5.82;;;;;;;18.86;45.07;102047.25;5050124;28;20032;-59
2023/06/02 11:15:21;;;;;;;17.13;5.18;;;;;;;18.79;44.45;102051.41;5057163;28;20045;-59
2023/06/02 11:17:50;;;;;;;11.80;5.00;;;;;;;19.22;44.18;102045.28;5062765;28;20153;-59